sensor_id;sensor_type;location;lat;lon;timestamp;P1;durP1;ratioP1;P2;durP2;ratioP2
5638;SDS011;2841;44.526;11.360;2022-12-07T00:01:43;76.87;;;36.60;;
5638;SDS011;2841;44.526;11.360;2022-12-07T00:04:12;82.30;;;35.30;;
5638;SDS011;2841;44.526;11.360;2022-12-07T00:06:41;81.13;;;33.67;;
5638;SDS011;2841;44.526;11.360;2022-12-07T00:09:11;69.47;;;30.53;;
5638;SDS011;2841;44.526;11.360;2022-12-07T00:11:41;88.83;;;34.37;;
5638;SDS011;2841;44.526;11.360;2022-12-07T00:14:10;57.73;;;29.40;;
5638;SDS011;2841;44.526;11.360;2022-12-07T00:16:38;99.20;;;29.63;;
5638;SDS011;2841;44.526;11.360;2022-12-07T00:19:06;61.43;;;27.40;;
5638;SDS011;2841;44.526;11.360;2022-12-07T00:21:33;69.27;;;27.40;;
5638;SDS011;2841;44.526;11.360;2022-12-07T00:24:02;64.37;;;29.03;;
5638;SDS011;2841;44.526;11.360;2022-12-07T00:26:31;64.60;;;28.97;;
5638;SDS011;2841;44.526;11.360;2022-12-07T00:29:01;72.60;;;26.57;;
5638;SDS011;2841;44.526;11.360;2022-12-07T00:31:31;75.23;;;29.00;;
5638;SDS011;2841;44.526;11.360;2022-12-07T00:34:00;85.97;;;28.80;;
5638;SDS011;2841;44.526;11.360;2022-12-07T00:36:27;63.43;;;28.27;;
5638;SDS011;2841;44.526;11.360;2022-12-07T00:38:54;99.00;;;30.77;;
5638;SDS011;2841;44.526;11.360;2022-12-07T00:41:24;66.33;;;29.10;;
5638;SDS011;2841;44.526;11.360;2022-12-07T00:43:52;65.97;;;30.10;;
5638;SDS011;2841;44.526;11.360;2022-12-07T00:46:21;64.10;;;28.63;;
5638;SDS011;2841;44.526;11.360;2022-12-07T00:48:50;90.53;;;32.50;;
5638;SDS011;2841;44.526;11.360;2022-12-07T00:51:18;85.43;;;31.20;;
5638;SDS011;2841;44.526;11.360;2022-12-07T00:53:46;72.83;;;30.07;;
5638;SDS011;2841;44.526;11.360;2022-12-07T00:56:14;81.17;;;31.83;;
5638;SDS011;2841;44.526;11.360;2022-12-07T00:58:44;63.73;;;27.97;;
5638;SDS011;2841;44.526;11.360;2022-12-07T01:01:16;70.37;;;26.83;;
5638;SDS011;2841;44.526;11.360;2022-12-07T01:03:44;119.27;;;31.07;;
5638;SDS011;2841;44.526;11.360;2022-12-07T01:06:13;87.67;;;27.90;;
5638;SDS011;2841;44.526;11.360;2022-12-07T01:08:41;58.37;;;27.97;;
5638;SDS011;2841;44.526;11.360;2022-12-07T01:11:09;71.80;;;31.60;;
5638;SDS011;2841;44.526;11.360;2022-12-07T01:13:39;82.53;;;30.07;;
5638;SDS011;2841;44.526;11.360;2022-12-07T01:16:07;68.33;;;31.40;;
5638;SDS011;2841;44.526;11.360;2022-12-07T01:18:36;70.37;;;29.10;;
5638;SDS011;2841;44.526;11.360;2022-12-07T01:21:05;57.17;;;27.40;;
5638;SDS011;2841;44.526;11.360;2022-12-07T01:23:34;52.20;;;27.07;;
5638;SDS011;2841;44.526;11.360;2022-12-07T01:26:02;64.73;;;27.20;;
5638;SDS011;2841;44.526;11.360;2022-12-07T01:28:31;71.27;;;28.57;;
5638;SDS011;2841;44.526;11.360;2022-12-07T01:30:59;57.30;;;25.90;;
5638;SDS011;2841;44.526;11.360;2022-12-07T01:33:28;60.70;;;26.73;;
5638;SDS011;2841;44.526;11.360;2022-12-07T01:36:00;64.13;;;28.00;;
5638;SDS011;2841;44.526;11.360;2022-12-07T01:38:30;63.70;;;25.50;;
5638;SDS011;2841;44.526;11.360;2022-12-07T01:40:58;104.93;;;28.50;;
5638;SDS011;2841;44.526;11.360;2022-12-07T01:43:27;65.80;;;27.70;;
5638;SDS011;2841;44.526;11.360;2022-12-07T01:45:55;87.10;;;29.20;;
5638;SDS011;2841;44.526;11.360;2022-12-07T01:48:23;104.03;;;30.90;;
5638;SDS011;2841;44.526;11.360;2022-12-07T01:50:53;56.27;;;24.13;;
5638;SDS011;2841;44.526;11.360;2022-12-07T01:53:25;65.60;;;25.93;;
5638;SDS011;2841;44.526;11.360;2022-12-07T01:55:57;82.80;;;30.73;;
5638;SDS011;2841;44.526;11.360;2022-12-07T01:58:25;72.97;;;27.13;;
5638;SDS011;2841;44.526;11.360;2022-12-07T02:00:53;94.43;;;29.33;;
5638;SDS011;2841;44.526;11.360;2022-12-07T02:03:21;76.20;;;32.60;;
5638;SDS011;2841;44.526;11.360;2022-12-07T02:05:52;65.37;;;25.73;;
5638;SDS011;2841;44.526;11.360;2022-12-07T02:08:20;78.70;;;29.90;;
5638;SDS011;2841;44.526;11.360;2022-12-07T02:10:47;71.37;;;29.10;;
5638;SDS011;2841;44.526;11.360;2022-12-07T02:13:16;68.70;;;28.80;;
5638;SDS011;2841;44.526;11.360;2022-12-07T02:15:54;77.27;;;29.47;;
5638;SDS011;2841;44.526;11.360;2022-12-07T02:18:38;51.60;;;26.10;;
5638;SDS011;2841;44.526;11.360;2022-12-07T02:21:13;60.83;;;27.63;;
5638;SDS011;2841;44.526;11.360;2022-12-07T02:23:53;63.83;;;26.53;;
5638;SDS011;2841;44.526;11.360;2022-12-07T02:26:47;62.23;;;28.00;;
5638;SDS011;2841;44.526;11.360;2022-12-07T02:29:35;61.20;;;26.70;;
5638;SDS011;2841;44.526;11.360;2022-12-07T02:32:08;86.23;;;30.30;;
5638;SDS011;2841;44.526;11.360;2022-12-07T02:34:43;63.87;;;26.07;;
5638;SDS011;2841;44.526;11.360;2022-12-07T02:37:18;60.70;;;28.17;;
5638;SDS011;2841;44.526;11.360;2022-12-07T02:39:56;64.80;;;28.37;;
5638;SDS011;2841;44.526;11.360;2022-12-07T02:42:28;86.80;;;30.20;;
5638;SDS011;2841;44.526;11.360;2022-12-07T02:45:01;63.43;;;27.43;;
5638;SDS011;2841;44.526;11.360;2022-12-07T02:47:31;80.93;;;29.03;;
5638;SDS011;2841;44.526;11.360;2022-12-07T02:50:02;87.53;;;29.23;;
5638;SDS011;2841;44.526;11.360;2022-12-07T02:52:30;78.13;;;32.30;;
5638;SDS011;2841;44.526;11.360;2022-12-07T02:54:57;80.73;;;30.40;;
5638;SDS011;2841;44.526;11.360;2022-12-07T02:57:33;82.30;;;28.10;;
5638;SDS011;2841;44.526;11.360;2022-12-07T03:00:10;95.37;;;30.83;;
5638;SDS011;2841;44.526;11.360;2022-12-07T03:02:42;82.90;;;31.10;;
5638;SDS011;2841;44.526;11.360;2022-12-07T03:05:20;90.10;;;31.07;;
5638;SDS011;2841;44.526;11.360;2022-12-07T03:08:01;83.30;;;29.50;;
5638;SDS011;2841;44.526;11.360;2022-12-07T03:10:33;85.07;;;30.23;;
5638;SDS011;2841;44.526;11.360;2022-12-07T03:13:07;88.43;;;29.57;;
5638;SDS011;2841;44.526;11.360;2022-12-07T03:15:41;86.80;;;33.30;;
5638;SDS011;2841;44.526;11.360;2022-12-07T03:18:12;97.67;;;31.60;;
5638;SDS011;2841;44.526;11.360;2022-12-07T03:20:43;93.23;;;32.50;;
5638;SDS011;2841;44.526;11.360;2022-12-07T03:23:12;97.70;;;30.80;;
5638;SDS011;2841;44.526;11.360;2022-12-07T03:25:42;100.43;;;29.70;;
5638;SDS011;2841;44.526;11.360;2022-12-07T03:28:13;112.40;;;34.10;;
5638;SDS011;2841;44.526;11.360;2022-12-07T03:30:46;101.83;;;33.30;;
5638;SDS011;2841;44.526;11.360;2022-12-07T03:33:18;101.43;;;34.87;;
5638;SDS011;2841;44.526;11.360;2022-12-07T03:35:49;130.93;;;37.10;;
5638;SDS011;2841;44.526;11.360;2022-12-07T03:38:20;116.83;;;34.67;;
5638;SDS011;2841;44.526;11.360;2022-12-07T03:40:52;88.60;;;31.27;;
5638;SDS011;2841;44.526;11.360;2022-12-07T03:43:25;106.73;;;33.80;;
5638;SDS011;2841;44.526;11.360;2022-12-07T03:45:58;110.97;;;32.63;;
5638;SDS011;2841;44.526;11.360;2022-12-07T03:48:32;127.33;;;36.87;;
5638;SDS011;2841;44.526;11.360;2022-12-07T03:51:06;112.57;;;37.30;;
5638;SDS011;2841;44.526;11.360;2022-12-07T03:53:39;111.70;;;36.97;;
5638;SDS011;2841;44.526;11.360;2022-12-07T03:56:09;98.83;;;35.80;;
5638;SDS011;2841;44.526;11.360;2022-12-07T03:58:38;99.23;;;36.70;;
5638;SDS011;2841;44.526;11.360;2022-12-07T04:01:07;118.23;;;33.50;;
5638;SDS011;2841;44.526;11.360;2022-12-07T04:03:35;125.33;;;36.03;;
5638;SDS011;2841;44.526;11.360;2022-12-07T04:06:03;108.47;;;36.60;;
5638;SDS011;2841;44.526;11.360;2022-12-07T04:08:30;113.53;;;35.60;;
5638;SDS011;2841;44.526;11.360;2022-12-07T04:10:57;101.23;;;39.63;;
5638;SDS011;2841;44.526;11.360;2022-12-07T04:13:25;146.90;;;37.87;;
5638;SDS011;2841;44.526;11.360;2022-12-07T04:15:52;127.07;;;35.37;;
5638;SDS011;2841;44.526;11.360;2022-12-07T04:18:20;93.27;;;33.77;;
5638;SDS011;2841;44.526;11.360;2022-12-07T04:20:47;109.33;;;36.63;;
5638;SDS011;2841;44.526;11.360;2022-12-07T04:23:15;102.53;;;35.67;;
5638;SDS011;2841;44.526;11.360;2022-12-07T04:25:42;94.20;;;36.33;;
5638;SDS011;2841;44.526;11.360;2022-12-07T04:28:09;118.03;;;35.47;;
5638;SDS011;2841;44.526;11.360;2022-12-07T04:30:36;136.17;;;37.27;;
5638;SDS011;2841;44.526;11.360;2022-12-07T04:33:03;121.63;;;36.57;;
5638;SDS011;2841;44.526;11.360;2022-12-07T04:35:31;150.67;;;39.73;;
5638;SDS011;2841;44.526;11.360;2022-12-07T04:37:58;103.20;;;35.17;;
5638;SDS011;2841;44.526;11.360;2022-12-07T04:40:25;130.93;;;37.10;;
5638;SDS011;2841;44.526;11.360;2022-12-07T04:42:52;113.00;;;38.30;;
5638;SDS011;2841;44.526;11.360;2022-12-07T04:45:19;150.07;;;35.87;;
5638;SDS011;2841;44.526;11.360;2022-12-07T04:47:47;111.17;;;33.60;;
5638;SDS011;2841;44.526;11.360;2022-12-07T04:50:14;104.33;;;37.80;;
5638;SDS011;2841;44.526;11.360;2022-12-07T04:52:42;120.97;;;38.17;;
5638;SDS011;2841;44.526;11.360;2022-12-07T04:55:10;170.77;;;37.53;;
5638;SDS011;2841;44.526;11.360;2022-12-07T04:57:37;126.73;;;37.77;;
5638;SDS011;2841;44.526;11.360;2022-12-07T05:00:04;112.60;;;39.17;;
5638;SDS011;2841;44.526;11.360;2022-12-07T05:02:32;122.53;;;38.50;;
5638;SDS011;2841;44.526;11.360;2022-12-07T05:04:59;110.83;;;38.33;;
5638;SDS011;2841;44.526;11.360;2022-12-07T05:07:27;134.53;;;41.03;;
5638;SDS011;2841;44.526;11.360;2022-12-07T05:09:55;133.67;;;41.40;;
5638;SDS011;2841;44.526;11.360;2022-12-07T05:12:22;155.67;;;42.63;;
5638;SDS011;2841;44.526;11.360;2022-12-07T05:14:49;118.70;;;38.30;;
5638;SDS011;2841;44.526;11.360;2022-12-07T05:17:16;124.27;;;40.20;;
5638;SDS011;2841;44.526;11.360;2022-12-07T05:19:44;126.63;;;41.47;;
5638;SDS011;2841;44.526;11.360;2022-12-07T05:22:10;119.57;;;41.67;;
5638;SDS011;2841;44.526;11.360;2022-12-07T05:24:38;154.53;;;38.87;;
5638;SDS011;2841;44.526;11.360;2022-12-07T05:27:06;137.93;;;43.00;;
5638;SDS011;2841;44.526;11.360;2022-12-07T05:29:34;134.83;;;44.33;;
5638;SDS011;2841;44.526;11.360;2022-12-07T05:32:01;162.50;;;45.53;;
5638;SDS011;2841;44.526;11.360;2022-12-07T05:34:28;142.17;;;44.20;;
5638;SDS011;2841;44.526;11.360;2022-12-07T05:36:55;143.60;;;45.70;;
5638;SDS011;2841;44.526;11.360;2022-12-07T05:39:22;143.43;;;44.20;;
5638;SDS011;2841;44.526;11.360;2022-12-07T05:41:49;133.23;;;44.90;;
5638;SDS011;2841;44.526;11.360;2022-12-07T05:44:35;138.20;;;49.03;;
5638;SDS011;2841;44.526;11.360;2022-12-07T05:47:02;137.87;;;45.67;;
5638;SDS011;2841;44.526;11.360;2022-12-07T05:49:29;121.37;;;40.90;;
5638;SDS011;2841;44.526;11.360;2022-12-07T05:51:57;147.40;;;42.40;;
5638;SDS011;2841;44.526;11.360;2022-12-07T05:54:24;125.43;;;43.87;;
5638;SDS011;2841;44.526;11.360;2022-12-07T05:56:51;127.93;;;43.37;;
5638;SDS011;2841;44.526;11.360;2022-12-07T05:59:18;150.47;;;42.07;;
5638;SDS011;2841;44.526;11.360;2022-12-07T06:01:49;171.20;;;47.23;;
5638;SDS011;2841;44.526;11.360;2022-12-07T06:04:16;151.37;;;45.47;;
5638;SDS011;2841;44.526;11.360;2022-12-07T06:06:44;141.47;;;45.67;;
5638;SDS011;2841;44.526;11.360;2022-12-07T06:09:11;145.53;;;44.17;;
5638;SDS011;2841;44.526;11.360;2022-12-07T06:11:39;160.33;;;49.07;;
5638;SDS011;2841;44.526;11.360;2022-12-07T06:14:24;121.23;;;42.57;;
5638;SDS011;2841;44.526;11.360;2022-12-07T06:16:53;132.17;;;47.80;;
5638;SDS011;2841;44.526;11.360;2022-12-07T06:19:20;172.73;;;45.17;;
5638;SDS011;2841;44.526;11.360;2022-12-07T06:21:47;138.87;;;43.00;;
5638;SDS011;2841;44.526;11.360;2022-12-07T06:24:15;119.47;;;40.53;;
5638;SDS011;2841;44.526;11.360;2022-12-07T06:26:42;119.07;;;45.53;;
5638;SDS011;2841;44.526;11.360;2022-12-07T06:29:10;128.70;;;42.77;;
5638;SDS011;2841;44.526;11.360;2022-12-07T06:31:38;110.40;;;41.10;;
5638;SDS011;2841;44.526;11.360;2022-12-07T06:34:07;106.40;;;40.53;;
5638;SDS011;2841;44.526;11.360;2022-12-07T06:36:37;110.00;;;42.77;;
5638;SDS011;2841;44.526;11.360;2022-12-07T06:39:04;136.10;;;43.60;;
5638;SDS011;2841;44.526;11.360;2022-12-07T06:41:34;104.70;;;40.20;;
5638;SDS011;2841;44.526;11.360;2022-12-07T06:44:01;120.93;;;39.27;;
5638;SDS011;2841;44.526;11.360;2022-12-07T06:46:28;127.27;;;40.73;;
5638;SDS011;2841;44.526;11.360;2022-12-07T06:48:55;126.93;;;40.33;;
5638;SDS011;2841;44.526;11.360;2022-12-07T06:51:23;109.10;;;39.50;;
5638;SDS011;2841;44.526;11.360;2022-12-07T06:53:51;112.97;;;37.80;;
5638;SDS011;2841;44.526;11.360;2022-12-07T06:56:18;120.73;;;41.93;;
5638;SDS011;2841;44.526;11.360;2022-12-07T06:58:45;112.27;;;37.40;;
5638;SDS011;2841;44.526;11.360;2022-12-07T07:01:13;120.53;;;40.97;;
5638;SDS011;2841;44.526;11.360;2022-12-07T07:03:41;105.77;;;39.50;;
5638;SDS011;2841;44.526;11.360;2022-12-07T07:06:09;112.43;;;37.03;;
5638;SDS011;2841;44.526;11.360;2022-12-07T07:08:38;114.97;;;38.03;;
5638;SDS011;2841;44.526;11.360;2022-12-07T07:11:06;101.87;;;35.40;;
5638;SDS011;2841;44.526;11.360;2022-12-07T07:13:34;105.10;;;34.80;;
5638;SDS011;2841;44.526;11.360;2022-12-07T07:16:02;96.40;;;35.93;;
5638;SDS011;2841;44.526;11.360;2022-12-07T07:18:29;115.73;;;36.33;;
5638;SDS011;2841;44.526;11.360;2022-12-07T07:20:56;83.80;;;32.20;;
5638;SDS011;2841;44.526;11.360;2022-12-07T07:23:23;84.30;;;34.23;;
5638;SDS011;2841;44.526;11.360;2022-12-07T07:25:52;99.30;;;35.97;;
5638;SDS011;2841;44.526;11.360;2022-12-07T07:28:19;93.70;;;33.27;;
5638;SDS011;2841;44.526;11.360;2022-12-07T07:30:47;79.93;;;31.37;;
5638;SDS011;2841;44.526;11.360;2022-12-07T07:33:14;92.60;;;33.70;;
5638;SDS011;2841;44.526;11.360;2022-12-07T07:35:41;117.53;;;39.10;;
5638;SDS011;2841;44.526;11.360;2022-12-07T07:38:08;114.23;;;34.70;;
5638;SDS011;2841;44.526;11.360;2022-12-07T07:40:35;86.80;;;35.50;;
5638;SDS011;2841;44.526;11.360;2022-12-07T07:43:04;110.03;;;35.43;;
5638;SDS011;2841;44.526;11.360;2022-12-07T07:45:31;107.80;;;38.27;;
5638;SDS011;2841;44.526;11.360;2022-12-07T07:47:58;126.70;;;42.07;;
5638;SDS011;2841;44.526;11.360;2022-12-07T07:50:25;126.43;;;40.70;;
5638;SDS011;2841;44.526;11.360;2022-12-07T07:52:53;111.23;;;40.03;;
5638;SDS011;2841;44.526;11.360;2022-12-07T07:55:20;112.57;;;40.70;;
5638;SDS011;2841;44.526;11.360;2022-12-07T07:57:47;120.13;;;43.47;;
5638;SDS011;2841;44.526;11.360;2022-12-07T08:00:16;110.00;;;40.10;;
5638;SDS011;2841;44.526;11.360;2022-12-07T08:02:43;126.63;;;37.43;;
5638;SDS011;2841;44.526;11.360;2022-12-07T08:05:11;89.27;;;37.17;;
5638;SDS011;2841;44.526;11.360;2022-12-07T08:07:39;93.47;;;35.80;;
5638;SDS011;2841;44.526;11.360;2022-12-07T08:10:07;113.90;;;40.23;;
5638;SDS011;2841;44.526;11.360;2022-12-07T08:12:36;116.73;;;43.13;;
5638;SDS011;2841;44.526;11.360;2022-12-07T08:15:25;138.60;;;42.30;;
5638;SDS011;2841;44.526;11.360;2022-12-07T08:17:53;108.87;;;38.67;;
5638;SDS011;2841;44.526;11.360;2022-12-07T08:20:20;98.50;;;37.70;;
5638;SDS011;2841;44.526;11.360;2022-12-07T08:22:47;105.37;;;38.70;;
5638;SDS011;2841;44.526;11.360;2022-12-07T08:25:14;102.97;;;38.90;;
5638;SDS011;2841;44.526;11.360;2022-12-07T08:27:42;102.90;;;39.17;;
5638;SDS011;2841;44.526;11.360;2022-12-07T08:30:10;122.13;;;41.20;;
5638;SDS011;2841;44.526;11.360;2022-12-07T08:32:39;104.37;;;35.43;;
5638;SDS011;2841;44.526;11.360;2022-12-07T08:35:06;113.77;;;40.33;;
5638;SDS011;2841;44.526;11.360;2022-12-07T08:37:35;95.13;;;38.50;;
5638;SDS011;2841;44.526;11.360;2022-12-07T08:40:02;103.40;;;38.27;;
5638;SDS011;2841;44.526;11.360;2022-12-07T08:42:30;95.53;;;36.20;;
5638;SDS011;2841;44.526;11.360;2022-12-07T08:45:05;96.80;;;35.90;;
5638;SDS011;2841;44.526;11.360;2022-12-07T08:47:33;76.60;;;34.77;;
5638;SDS011;2841;44.526;11.360;2022-12-07T08:50:04;81.37;;;36.83;;
5638;SDS011;2841;44.526;11.360;2022-12-07T08:52:33;102.10;;;37.73;;
5638;SDS011;2841;44.526;11.360;2022-12-07T08:55:02;90.50;;;36.70;;
5638;SDS011;2841;44.526;11.360;2022-12-07T08:57:31;103.83;;;37.80;;
5638;SDS011;2841;44.526;11.360;2022-12-07T09:00:01;107.17;;;35.07;;
5638;SDS011;2841;44.526;11.360;2022-12-07T09:02:30;81.40;;;34.93;;
5638;SDS011;2841;44.526;11.360;2022-12-07T09:04:57;100.87;;;38.23;;
5638;SDS011;2841;44.526;11.360;2022-12-07T09:07:25;99.60;;;38.00;;
5638;SDS011;2841;44.526;11.360;2022-12-07T09:09:53;100.70;;;37.17;;
5638;SDS011;2841;44.526;11.360;2022-12-07T09:12:21;80.00;;;36.33;;
5638;SDS011;2841;44.526;11.360;2022-12-07T09:14:48;100.40;;;39.00;;
5638;SDS011;2841;44.526;11.360;2022-12-07T09:17:15;90.63;;;34.00;;
5638;SDS011;2841;44.526;11.360;2022-12-07T09:19:42;90.10;;;34.93;;
5638;SDS011;2841;44.526;11.360;2022-12-07T09:22:09;82.67;;;36.53;;
5638;SDS011;2841;44.526;11.360;2022-12-07T09:24:38;93.37;;;34.23;;
5638;SDS011;2841;44.526;11.360;2022-12-07T09:27:05;83.30;;;34.60;;
5638;SDS011;2841;44.526;11.360;2022-12-07T09:29:32;87.80;;;35.43;;
5638;SDS011;2841;44.526;11.360;2022-12-07T09:31:59;97.57;;;38.17;;
5638;SDS011;2841;44.526;11.360;2022-12-07T09:34:26;89.27;;;36.17;;
5638;SDS011;2841;44.526;11.360;2022-12-07T09:36:53;82.60;;;34.53;;
5638;SDS011;2841;44.526;11.360;2022-12-07T09:39:20;76.00;;;34.67;;
5638;SDS011;2841;44.526;11.360;2022-12-07T09:41:49;69.23;;;33.07;;
5638;SDS011;2841;44.526;11.360;2022-12-07T09:44:18;80.87;;;32.63;;
5638;SDS011;2841;44.526;11.360;2022-12-07T09:46:48;84.63;;;36.63;;
5638;SDS011;2841;44.526;11.360;2022-12-07T09:49:16;94.53;;;34.50;;
5638;SDS011;2841;44.526;11.360;2022-12-07T09:51:45;78.83;;;32.77;;
5638;SDS011;2841;44.526;11.360;2022-12-07T09:54:13;63.33;;;28.93;;
5638;SDS011;2841;44.526;11.360;2022-12-07T09:56:42;61.13;;;32.23;;
5638;SDS011;2841;44.526;11.360;2022-12-07T09:59:13;56.83;;;31.13;;
5638;SDS011;2841;44.526;11.360;2022-12-07T10:01:44;68.50;;;31.07;;
5638;SDS011;2841;44.526;11.360;2022-12-07T10:04:14;62.53;;;31.23;;
5638;SDS011;2841;44.526;11.360;2022-12-07T10:06:43;52.37;;;30.70;;
5638;SDS011;2841;44.526;11.360;2022-12-07T10:09:11;61.50;;;30.50;;
5638;SDS011;2841;44.526;11.360;2022-12-07T10:11:58;52.57;;;27.40;;
5638;SDS011;2841;44.526;11.360;2022-12-07T10:14:32;60.13;;;28.67;;
5638;SDS011;2841;44.526;11.360;2022-12-07T10:17:00;57.93;;;27.90;;
5638;SDS011;2841;44.526;11.360;2022-12-07T10:19:28;55.63;;;26.83;;
5638;SDS011;2841;44.526;11.360;2022-12-07T10:22:00;58.17;;;28.40;;
5638;SDS011;2841;44.526;11.360;2022-12-07T10:24:31;54.80;;;29.03;;
5638;SDS011;2841;44.526;11.360;2022-12-07T10:26:58;50.80;;;27.00;;
5638;SDS011;2841;44.526;11.360;2022-12-07T10:29:28;50.73;;;27.10;;
5638;SDS011;2841;44.526;11.360;2022-12-07T10:31:58;52.93;;;26.23;;
5638;SDS011;2841;44.526;11.360;2022-12-07T10:34:27;47.30;;;26.17;;
5638;SDS011;2841;44.526;11.360;2022-12-07T10:39:45;57.57;;;27.93;;
5638;SDS011;2841;44.526;11.360;2022-12-07T10:42:17;64.40;;;26.50;;
5638;SDS011;2841;44.526;11.360;2022-12-07T10:44:45;45.67;;;25.00;;
5638;SDS011;2841;44.526;11.360;2022-12-07T10:47:29;58.50;;;24.30;;
5638;SDS011;2841;44.526;11.360;2022-12-07T10:53:03;53.23;;;25.67;;
5638;SDS011;2841;44.526;11.360;2022-12-07T10:55:45;47.00;;;25.33;;
5638;SDS011;2841;44.526;11.360;2022-12-07T10:58:37;53.37;;;26.17;;
5638;SDS011;2841;44.526;11.360;2022-12-07T11:01:18;49.10;;;24.17;;
5638;SDS011;2841;44.526;11.360;2022-12-07T11:03:58;43.17;;;25.03;;
5638;SDS011;2841;44.526;11.360;2022-12-07T11:06:39;46.70;;;25.87;;
5638;SDS011;2841;44.526;11.360;2022-12-07T11:09:34;42.70;;;22.80;;
5638;SDS011;2841;44.526;11.360;2022-12-07T11:12:26;42.47;;;23.13;;
5638;SDS011;2841;44.526;11.360;2022-12-07T11:15:04;40.57;;;25.03;;
5638;SDS011;2841;44.526;11.360;2022-12-07T11:17:41;47.63;;;25.70;;
5638;SDS011;2841;44.526;11.360;2022-12-07T11:20:19;47.03;;;23.17;;
5638;SDS011;2841;44.526;11.360;2022-12-07T11:23:00;43.83;;;26.00;;
5638;SDS011;2841;44.526;11.360;2022-12-07T11:25:34;38.23;;;22.30;;
5638;SDS011;2841;44.526;11.360;2022-12-07T11:28:17;54.50;;;23.40;;
5638;SDS011;2841;44.526;11.360;2022-12-07T11:30:54;50.80;;;25.67;;
5638;SDS011;2841;44.526;11.360;2022-12-07T11:33:29;49.70;;;26.30;;
5638;SDS011;2841;44.526;11.360;2022-12-07T11:36:07;62.00;;;22.60;;
5638;SDS011;2841;44.526;11.360;2022-12-07T11:38:44;42.30;;;23.57;;
5638;SDS011;2841;44.526;11.360;2022-12-07T11:41:16;42.83;;;23.53;;
5638;SDS011;2841;44.526;11.360;2022-12-07T11:43:51;39.47;;;22.73;;
5638;SDS011;2841;44.526;11.360;2022-12-07T11:46:23;49.40;;;24.83;;
5638;SDS011;2841;44.526;11.360;2022-12-07T11:48:55;49.20;;;22.33;;
5638;SDS011;2841;44.526;11.360;2022-12-07T11:51:31;46.60;;;24.93;;
5638;SDS011;2841;44.526;11.360;2022-12-07T11:54:02;44.83;;;22.93;;
5638;SDS011;2841;44.526;11.360;2022-12-07T11:56:37;44.97;;;23.70;;
5638;SDS011;2841;44.526;11.360;2022-12-07T11:59:07;45.67;;;23.33;;
5638;SDS011;2841;44.526;11.360;2022-12-07T12:01:42;43.43;;;22.87;;
5638;SDS011;2841;44.526;11.360;2022-12-07T12:04:20;41.40;;;21.60;;
5638;SDS011;2841;44.526;11.360;2022-12-07T12:06:55;42.63;;;23.50;;
5638;SDS011;2841;44.526;11.360;2022-12-07T12:09:23;47.50;;;24.80;;
5638;SDS011;2841;44.526;11.360;2022-12-07T12:12:05;42.87;;;24.97;;
5638;SDS011;2841;44.526;11.360;2022-12-07T12:15:11;46.70;;;22.80;;
5638;SDS011;2841;44.526;11.360;2022-12-07T12:17:50;37.90;;;20.80;;
5638;SDS011;2841;44.526;11.360;2022-12-07T12:20:27;39.73;;;22.97;;
5638;SDS011;2841;44.526;11.360;2022-12-07T12:22:59;41.20;;;23.83;;
5638;SDS011;2841;44.526;11.360;2022-12-07T12:25:35;42.90;;;23.97;;
5638;SDS011;2841;44.526;11.360;2022-12-07T12:28:10;43.87;;;23.53;;
5638;SDS011;2841;44.526;11.360;2022-12-07T12:30:51;42.83;;;22.63;;
5638;SDS011;2841;44.526;11.360;2022-12-07T12:33:32;42.60;;;22.90;;
5638;SDS011;2841;44.526;11.360;2022-12-07T12:38:50;46.10;;;21.77;;
5638;SDS011;2841;44.526;11.360;2022-12-07T12:47:53;45.20;;;23.70;;
5638;SDS011;2841;44.526;11.360;2022-12-07T12:50:25;43.87;;;22.17;;
5638;SDS011;2841;44.526;11.360;2022-12-07T12:52:58;39.60;;;21.83;;
5638;SDS011;2841;44.526;11.360;2022-12-07T12:55:46;40.97;;;21.77;;
5638;SDS011;2841;44.526;11.360;2022-12-07T12:58:35;42.77;;;22.30;;
5638;SDS011;2841;44.526;11.360;2022-12-07T13:10:29;38.77;;;22.40;;
5638;SDS011;2841;44.526;11.360;2022-12-07T13:13:25;42.03;;;21.93;;
5638;SDS011;2841;44.526;11.360;2022-12-07T13:18:57;34.43;;;19.77;;
5638;SDS011;2841;44.526;11.360;2022-12-07T13:24:17;37.40;;;20.30;;
5638;SDS011;2841;44.526;11.360;2022-12-07T13:26:46;32.43;;;19.10;;
5638;SDS011;2841;44.526;11.360;2022-12-07T13:29:16;36.30;;;18.60;;
5638;SDS011;2841;44.526;11.360;2022-12-07T13:31:46;34.30;;;20.13;;
5638;SDS011;2841;44.526;11.360;2022-12-07T13:34:28;38.07;;;19.60;;
5638;SDS011;2841;44.526;11.360;2022-12-07T13:36:56;35.83;;;19.50;;
5638;SDS011;2841;44.526;11.360;2022-12-07T13:39:24;36.17;;;18.93;;
5638;SDS011;2841;44.526;11.360;2022-12-07T13:41:53;33.60;;;19.70;;
5638;SDS011;2841;44.526;11.360;2022-12-07T13:44:23;37.20;;;19.70;;
5638;SDS011;2841;44.526;11.360;2022-12-07T13:46:53;38.93;;;20.23;;
5638;SDS011;2841;44.526;11.360;2022-12-07T13:49:26;33.20;;;18.63;;
5638;SDS011;2841;44.526;11.360;2022-12-07T13:51:55;39.03;;;17.20;;
5638;SDS011;2841;44.526;11.360;2022-12-07T13:54:43;26.63;;;16.13;;
5638;SDS011;2841;44.526;11.360;2022-12-07T13:57:11;30.17;;;17.20;;
5638;SDS011;2841;44.526;11.360;2022-12-07T13:59:40;29.67;;;15.90;;
5638;SDS011;2841;44.526;11.360;2022-12-07T14:02:16;28.17;;;16.73;;
5638;SDS011;2841;44.526;11.360;2022-12-07T14:04:46;32.57;;;19.80;;
5638;SDS011;2841;44.526;11.360;2022-12-07T14:07:18;31.50;;;17.10;;
5638;SDS011;2841;44.526;11.360;2022-12-07T14:09:54;34.40;;;18.47;;
5638;SDS011;2841;44.526;11.360;2022-12-07T14:12:23;32.17;;;17.37;;
5638;SDS011;2841;44.526;11.360;2022-12-07T14:14:53;29.33;;;16.27;;
5638;SDS011;2841;44.526;11.360;2022-12-07T14:17:22;28.27;;;17.40;;
5638;SDS011;2841;44.526;11.360;2022-12-07T14:19:51;30.07;;;17.50;;
5638;SDS011;2841;44.526;11.360;2022-12-07T14:22:27;26.33;;;14.90;;
5638;SDS011;2841;44.526;11.360;2022-12-07T14:27:51;29.63;;;17.10;;
5638;SDS011;2841;44.526;11.360;2022-12-07T14:30:23;38.80;;;19.77;;
5638;SDS011;2841;44.526;11.360;2022-12-07T14:32:53;36.93;;;19.30;;
5638;SDS011;2841;44.526;11.360;2022-12-07T14:35:23;37.33;;;19.63;;
5638;SDS011;2841;44.526;11.360;2022-12-07T14:37:50;29.90;;;17.97;;
5638;SDS011;2841;44.526;11.360;2022-12-07T14:40:19;32.20;;;17.47;;
5638;SDS011;2841;44.526;11.360;2022-12-07T14:42:48;32.83;;;19.63;;
5638;SDS011;2841;44.526;11.360;2022-12-07T14:45:19;34.03;;;18.70;;
5638;SDS011;2841;44.526;11.360;2022-12-07T14:47:48;35.07;;;19.30;;
5638;SDS011;2841;44.526;11.360;2022-12-07T14:50:16;33.77;;;18.63;;
5638;SDS011;2841;44.526;11.360;2022-12-07T14:52:45;29.23;;;17.53;;
5638;SDS011;2841;44.526;11.360;2022-12-07T14:55:16;41.10;;;19.80;;
5638;SDS011;2841;44.526;11.360;2022-12-07T14:57:48;33.50;;;19.07;;
5638;SDS011;2841;44.526;11.360;2022-12-07T15:00:16;31.67;;;16.77;;
5638;SDS011;2841;44.526;11.360;2022-12-07T15:02:45;32.30;;;18.23;;
5638;SDS011;2841;44.526;11.360;2022-12-07T15:05:14;41.20;;;22.20;;
5638;SDS011;2841;44.526;11.360;2022-12-07T15:07:42;35.73;;;20.13;;
5638;SDS011;2841;44.526;11.360;2022-12-07T15:10:13;34.37;;;19.10;;
5638;SDS011;2841;44.526;11.360;2022-12-07T15:12:42;33.30;;;18.80;;
5638;SDS011;2841;44.526;11.360;2022-12-07T15:15:10;31.50;;;18.97;;
5638;SDS011;2841;44.526;11.360;2022-12-07T15:17:37;31.40;;;18.90;;
5638;SDS011;2841;44.526;11.360;2022-12-07T15:20:05;34.20;;;19.00;;
5638;SDS011;2841;44.526;11.360;2022-12-07T15:22:37;36.57;;;18.80;;
5638;SDS011;2841;44.526;11.360;2022-12-07T15:25:05;36.60;;;20.20;;